Terminal Aerodrome Forecast
Issued by NWS North Platte, NE

Home | Current Version | Previous Version | Text Only | Print | Product List | Glossary On
Versions: 1 2 3 4 5 6 7 8 9 10 11 12 13 14 15 16 17 18 19
000
FTUS43 KLBF 162320
TAFLBF
TAF
KLBF 162320Z 1700/1724 34011KT P6SM SCT250
     FM170200 33007KT P6SM FEW250
     FM171300 27005KT P6SM SKC
     FM172000 21007KT P6SM FEW250=

USA.gov is the U.S. government's official web portal to all federal, state and local government web resources and services.